Terminal Aerodrome Forecast
Issued by NWS Shreveport, LA

Home | Current Version | Previous Version | Text Only | Print | Product List | Glossary On
Versions: 1 2 3 4 5 6 7 8 9 10 11 12 13
465
FTUS44 KSHV 231156
TAFLFK
TAF
KLFK 231156Z 2312/2412 19006KT P6SM SCT030 BKN070 BKN280
      TEMPO 2312/2314 5SM BR BKN015 BKN070 BKN280
     FM231400 21005KT P6SM BKN025 OVC070
     FM231700 22008KT P6SM BKN070 BKN280
     FM232200 21008KT P6SM VCTS BKN050CB BKN120
     FM240100 18004KT P6SM SCT050 SCT120
     FM240900 19002KT P6SM BKN015 OVC070=

USA.gov is the U.S. government's official web portal to all federal, state and local government web resources and services.